Observations for FALCONARA IT-AFB, Italy (LIPY)

LIPY 201950Z VRB02KT 3000 BR NSC 04/04 Q1026
LIPY 201850Z 15003KT 3000 BR NSC 06/05 Q1026
LIPY 201750Z VRB01KT 3000 BR NSC 07/06 Q1025
LIPY 201650Z 30002KT 3000 BR NSC 07/06 Q1025
LIPY 201550Z 34003KT 310V010 4000 BR NSC 09/07 Q1025
LIPY 201450Z 03006KT 4000 BR NSC 09/07 Q1025
LIPY 201350Z 03007KT 4000 BR NSC 09/07 Q1025
LIPY 201250Z 03006KT 8000 NSC 09/06 Q1025   
LIPY 201150Z 03006KT 6000 NSC 09/07 Q1025   
LIPY 201050Z 03005KT 010V070 6000 NSC 09/06 Q1025   
LIPY 201031Z 03003KT 300V070 5000 BR NSC 09/06 Q1025
LIPY 200950Z VRB01KT 3000 BR SCT005 08/07 Q1026 
LIPY 200926Z VRB02KT 2500 BR BKN004 06/06 Q1025
LIPY 200850Z 22003KT 150V270 1000 R22/P1500N BR BKN004 05/05 Q1025  
LIPY 200827Z VRB02KT 1000 R22/P1500N BR BKN005 05/05 Q1025
LIPY 200750Z 20003KT 170V230 2500 BR SCT004 BKN010 05/04 Q1025  
LIPY 200650Z 21003KT 4000 BR SCT006 SCT010 01/01 Q1024  
LIPY 200624Z VRB01KT 4000 BR SCT006 SCT010 00/00 Q1024
LIPY 200550Z 15002KT 6000 NSC 01/01 Q1024   
LIPY 200450Z AUTO 22003KT 6000 FEW044 00/00 Q1023
LIPY 200457Z 22002KT 6000 NSC 00/M00 Q1023
LIPY 200450Z AUTO 22003KT 6000 FEW044/// 00/00 Q1023
LIPY 200350Z AUTO VRB01KT 5000 BR FEW043 01/01 Q1023
LIPY 200457Z 22002KT 6000 NSC 00/M00 Q1023
LIPY 200350Z AUTO VRB01KT 5000 BR FEW043/// 01/01 Q1023 
LIPY 200250Z AUTO 20003KT 6000 NCD 01/01 Q1023  
LIPY 200204Z AUTO 18004KT 5000 BR NCD 03/03 Q1023
LIPY 200150Z AUTO 20003KT 4900 BR NCD 02/02 Q1023   
LIPY 200050Z AUTO 20005KT 3400 BR NCD 03/03 Q1023   
LIPY 192350Z AUTO 19004KT 3400 BR NCD 03/03 Q1023   
LIPY 192333Z AUTO 18003KT 2800 BR NCD 03/03 Q1023
LIPY 192250Z 19003KT 5000 BR NSC 03/03 Q1023
LIPY 192150Z 18003KT 5000 BR NSC 04/04 Q1023
LIPY 192050Z VRB01KT 5000 BR NSC 04/03 Q1023
LIPY 191950Z 16003KT 6000 NSC 06/04 Q1023